Latest Weather Observations for Millendon (Swan Valley)

IDW60801

Issued at 9:43 am WST Sunday 28 November 2021 (issued every 10 minutes, with the page automatically refreshed every 10 minutes)

About weather observations | Map of weather stations | Latest weather observations for WA | Other Formats
Station Details ID: 009281 Name: MILLENDON (SWAN VALLEY) Lat: -31.81 Lon: 116.02 Height: 15.62 m
Data from the previous 72 hours. | See also: Recent months at Millendon (Swan Valley)
Date/Time
WST
Temp
°C
App
Temp
°C
Dew
Point
°C
Rel
Hum
%
Delta-T
°C
Wind Press
QNH
hPa
Press
MSL
hPa
Rain since
9am
mm
Dir  Spd
km/h
Gust
km/h
Spd
kts
Gust
kts
28/09:30am 31.8 29.8 8.7 24 12.9 NW 9 13 5 7 1014.4 1014.3 0.0
28/09:00am 30.8 28.5 9.1 26 12.1 NNW 11 15 6 8 1014.4 1014.3 0.0
28/08:30am 29.1 28.0 9.8 30 10.8 N 6 9 3 5 1014.6 1014.5 0.0
28/08:00am 27.8 26.5 9.1 31 10.3 NNW 6 9 3 5 1015.0 1014.9 0.0
28/07:30am 26.2 24.3 9.1 34 9.3 W 9 15 5 8 1014.8 1014.7 0.0
28/07:00am 23.3 23.7 12.6 51 6.1 WNW 2 4 1 2 1014.4 1014.3 0.0
28/06:30am 18.4 18.7 12.2 67 3.4 W 2 6 1 3 1014.2 1014.1 0.0
28/06:00am 14.5 15.0 11.7 83 1.5 CALM 0 2 0 1 1014.0 1013.9 0.0
28/05:30am 13.9 14.3 11.4 85 1.3 CALM 0 4 0 2 1013.9 1013.8 0.0
28/05:00am 13.5 13.8 11.0 85 1.3 CALM 0 0 0 0 1013.8 1013.7 0.0
28/04:30am 13.8 14.2 11.1 84 1.4 CALM 0 0 0 0 1013.8 1013.7 0.0
28/04:00am 14.0 14.4 11.2 83 1.5 CALM 0 0 0 0 1013.6 1013.5 0.0
28/03:30am 14.5 14.9 11.3 81 1.7 CALM 0 0 0 0 1013.6 1013.5 0.0
28/03:00am 14.5 14.9 11.3 81 1.7 CALM 0 0 0 0 1013.5 1013.4 0.0
28/02:30am 15.0 15.4 11.4 79 1.9 CALM 0 0 0 0 1013.5 1013.4 0.0
28/02:00am 15.4 15.8 11.4 77 2.1 CALM 0 0 0 0 1013.5 1013.4 0.0
28/01:30am 16.1 16.6 11.7 75 2.4 CALM 0 0 0 0 1013.5 1013.4 0.0
28/01:00am 16.4 16.9 11.6 73 2.6 CALM 0 0 0 0 1013.7 1013.6 0.0
28/12:30am 16.9 17.5 11.8 72 2.8 CALM 0 0 0 0 1014.1 1014.0 0.0
28/12:00am 17.2 17.8 11.9 71 2.9 CALM 0 0 0 0 1014.3 1014.2 0.0
 
Date/Time
WST
Temp
°C
App
Temp
°C
Dew
Point
°C
Rel
Hum
%
Delta-T
°C
Wind Press
QNH
hPa
Press
MSL
hPa
Rain since
9am
mm
Dir  Spd
km/h
Gust
km/h
Spd
kts
Gust
kts
27/11:30pm 17.5 17.6 11.5 68 3.3 NE 2 6 1 3 1014.5 1014.4 0.0
27/11:00pm 18.4 18.9 11.5 64 3.8 CALM 0 0 0 0 1014.6 1014.5 0.0
27/10:30pm 19.1 19.6 11.7 62 4.1 CALM 0 0 0 0 1014.8 1014.7 0.0
27/10:00pm 19.6 20.2 11.9 61 4.3 CALM 0 0 0 0 1015.0 1014.9 0.0
27/09:30pm 21.2 21.5 11.0 52 5.6 CALM 0 0 0 0 1014.9 1014.8 0.0
27/09:00pm 22.1 22.5 11.2 50 6.0 CALM 0 0 0 0 1014.7 1014.6 0.0
27/08:30pm 23.7 23.9 10.4 43 7.3 CALM 0 0 0 0 1014.7 1014.6 0.0
27/08:00pm 25.9 25.1 8.0 32 9.6 SSE 2 4 1 2 1014.5 1014.4 0.0
27/07:30pm 27.8 26.4 7.1 27 11.0 S 4 7 2 4 1014.2 1014.1 0.0
27/07:00pm 30.2 28.2 6.1 22 12.8 SSW 6 7 3 4 1013.9 1013.8 0.0
27/06:30pm 32.1 29.4 5.6 19 14.1 SSW 9 13 5 7 1013.7 1013.6 0.0
27/06:00pm 32.2 29.2 4.1 17 14.6 SSW 9 17 5 9 1013.7 1013.6 0.0
27/05:30pm 33.4 29.8 5.0 17 15.1 SSW 13 24 7 13 1013.6 1013.5 0.0
27/05:00pm 33.7 30.8 8.3 21 14.2 SW 13 24 7 13 1013.4 1013.3 0.0
27/04:30pm 33.6 30.0 8.3 21 14.2 SW 17 28 9 15 1013.3 1013.2 0.0
27/04:00pm 37.1 33.9 3.0 12 17.9 S 9 19 5 10 1013.1 1013.0 0.0
27/03:30pm 36.8 33.7 1.5 11 18.1 SSE 7 13 4 7 1013.3 1013.2 0.0
27/03:00pm 37.1 34.2 -1.0 9 18.8 WNW 4 7 2 4 1013.6 1013.5 0.0
27/02:30pm 37.2 34.2 0.5 10 18.5 WNW 6 11 3 6 1013.9 1013.8 0.0
27/02:00pm 36.9 33.5 1.6 11 18.1 W 9 13 5 7 1014.2 1014.1 0.0
27/01:30pm 36.1 32.6 1.0 11 17.7 NW 9 15 5 8 1014.5 1014.4 0.0
27/01:00pm 35.7 33.1 3.0 13 17.0 ESE 6 11 3 6 1014.8 1014.7 0.0
27/12:30pm 35.0 33.0 6.3 17 15.7 N 6 19 3 10 1015.1 1015.0 0.0
27/12:00pm 35.0 32.4 6.3 17 15.7 N 9 17 5 9 1015.6 1015.5 0.0
27/11:30am 33.3 31.7 8.0 21 14.1 NNE 6 11 3 6 1016.1 1016.0 0.0
27/11:00am 31.9 30.2 8.2 23 13.1 NNE 7 13 4 7 1016.4 1016.3 0.0
27/10:30am 31.9 29.4 8.2 23 13.1 NNE 11 17 6 9 1016.7 1016.6 0.0
27/10:00am 31.7 29.5 9.3 25 12.6 NNE 11 22 6 12 1016.9 1016.8 0.0
27/09:30am 30.3 28.1 9.2 27 11.8 NNE 11 19 6 10 1017.0 1016.9 0.0
27/09:00am 29.0 26.2 8.7 28 11.2 NNE 13 22 7 12 1017.3 1017.2 0.0
27/08:30am 28.5 26.6 9.2 30 10.7 NNE 9 15 5 8 1017.6 1017.5 0.0
27/08:00am 26.9 25.6 9.3 33 9.7 ENE 6 11 3 6 1017.5 1017.4 0.0
27/07:30am 25.4 25.0 9.7 37 8.6 SE 2 11 1 6 1017.5 1017.4 0.0
27/07:00am 24.0 23.0 10.3 42 7.5 ENE 6 13 3 7 1017.4 1017.3 0.0
27/06:30am 22.5 21.5 10.3 46 6.7 SE 6 13 3 7 1017.4 1017.3 0.0
27/06:00am 20.8 20.2 10.3 51 5.7 SSE 4 9 2 5 1017.3 1017.2 0.0
27/05:30am 20.6 19.4 10.4 52 5.5 NE 7 20 4 11 1017.1 1017.0 0.0
27/05:00am 20.5 18.6 10.6 53 5.4 ENE 11 24 6 13 1016.8 1016.7 0.0
27/04:30am 20.8 19.3 10.6 52 5.6 ENE 9 30 5 16 1016.5 1016.4 0.0
27/04:00am 21.3 20.0 11.1 52 5.6 ENE 9 24 5 13 1016.2 1016.1 0.0
27/03:30am 21.4 19.7 11.1 52 5.7 E 11 24 6 13 1016.0 1015.9 0.0
27/03:00am 21.9 20.9 11.0 50 6.0 ESE 7 20 4 11 1015.9 1015.8 0.0
27/02:30am 22.1 21.3 10.9 49 6.2 SE 6 17 3 9 1016.1 1016.0 0.0
27/02:00am 22.3 21.6 10.1 46 6.6 SSW 4 9 2 5 1016.1 1016.0 0.0
27/01:30am 22.3 21.8 9.5 44 6.9 SSW 2 6 1 3 1016.4 1016.3 0.0
27/01:00am 21.1 20.5 10.3 50 5.9 SSW 4 9 2 5 1016.5 1016.4 0.0
27/12:30am 17.8 18.6 12.5 71 2.9 CALM 0 6 0 3 1016.6 1016.5 0.0
27/12:00am 17.1 17.8 12.2 73 2.7 CALM 0 0 0 0 1016.8 1016.7 0.0
 
Date/Time
WST
Temp
°C
App
Temp
°C
Dew
Point
°C
Rel
Hum
%
Delta-T
°C
Wind Press
QNH
hPa
Press
MSL
hPa
Rain since
9am
mm
Dir  Spd
km/h
Gust
km/h
Spd
kts
Gust
kts
26/11:30pm 17.4 18.1 12.3 72 2.8 CALM 0 0 0 0 1016.9 1016.8 0.0
26/11:00pm 18.2 18.8 12.0 67 3.4 CALM 0 0 0 0 1017.2 1017.1 0.0
26/10:30pm 20.0 20.7 12.3 61 4.3 CALM 0 2 0 1 1017.2 1017.1 0.0
26/10:00pm 20.5 20.3 11.7 57 4.9 ESE 4 4 2 2 1017.4 1017.3 0.0
26/09:30pm 22.7 22.0 11.4 49 6.3 S 6 7 3 4 1017.3 1017.2 0.0
26/09:00pm 24.3 24.0 11.6 45 7.2 S 4 7 2 4 1017.2 1017.1 0.0
26/08:30pm 25.2 24.6 10.3 39 8.3 S 4 7 2 4 1016.9 1016.8 0.0
26/08:00pm 26.5 25.2 9.8 35 9.2 S 7 13 4 7 1016.8 1016.7 0.0
26/07:30pm 27.5 26.2 9.8 33 9.9 S 7 15 4 8 1016.5 1016.4 0.0
26/07:00pm 28.6 26.5 9.8 31 10.5 SSW 11 22 6 12 1016.2 1016.1 0.0
26/06:30pm 29.8 26.8 9.3 28 11.4 SSW 15 26 8 14 1015.9 1015.8 0.0
26/06:00pm 30.8 28.1 9.1 26 12.1 SSW 13 20 7 11 1015.5 1015.4 0.0
26/05:30pm 31.6 28.4 8.6 24 12.8 SSW 15 26 8 14 1015.3 1015.2 0.0
26/05:00pm 32.1 28.7 9.0 24 13.0 SSW 17 28 9 15 1015.1 1015.0 0.0
26/04:30pm 32.8 29.3 10.2 25 13.0 SW 19 28 10 15 1015.0 1014.9 0.0
26/04:00pm 33.7 30.2 10.3 24 13.5 SW 19 30 10 16 1014.9 1014.8 0.0
26/03:30pm 34.7 32.1 4.3 15 16.1 SW 7 17 4 9 1015.0 1014.9 0.0
26/03:00pm 34.6 32.0 4.2 15 16.0 ESE 7 19 4 10 1015.1 1015.0 0.0
26/02:30pm 34.3 31.7 4.0 15 15.9 SW 7 17 4 9 1015.4 1015.3 0.0
26/02:00pm 34.5 32.2 5.0 16 15.7 N 6 11 3 6 1015.7 1015.6 0.0
26/01:30pm 34.5 32.8 5.9 17 15.5 NW 4 7 2 4 1016.0 1015.9 0.0
26/01:00pm 33.9 31.9 6.3 18 15.0 E 6 11 3 6 1016.5 1016.4 0.0
26/12:30pm 32.7 30.5 6.1 19 14.3 NE 7 15 4 8 1017.0 1016.9 0.0
26/12:00pm 32.8 31.3 8.3 22 13.6 NNW 6 15 3 8 1017.4 1017.3 0.0
26/11:30am 31.4 29.2 7.8 23 13.0 NNE 9 24 5 13 1017.9 1017.8 0.0
26/11:00am 30.4 28.4 7.0 23 12.6 NE 7 15 4 8 1018.3 1018.2 0.0
26/10:30am 29.9 28.3 8.9 27 11.7 ENE 7 13 4 7 1018.6 1018.5 0.0
26/10:00am 28.8 27.3 9.0 29 10.9 E 7 20 4 11 1018.9 1018.8 0.0
26/09:30am 28.1 27.1 10.3 33 10.0 ENE 6 11 3 6 1019.1 1019.0 0.0
26/09:00am 26.7 25.5 9.5 34 9.5 ENE 6 13 3 7 1019.2 1019.1 0.0
26/08:30am 25.0 23.9 10.5 40 8.1 ESE 7 17 4 9 1019.4 1019.3 0.0
26/08:00am 23.5 22.6 11.2 46 6.9 E 7 17 4 9 1019.3 1019.2 0.0
26/07:30am 22.2 21.1 11.9 52 5.8 E 9 19 5 10 1019.2 1019.1 0.0
26/07:00am 20.5 18.1 11.4 56 5.0 E 15 30 8 16 1019.1 1019.0 0.0
26/06:30am 19.4 16.6 11.2 59 4.5 E 17 30 9 16 1018.8 1018.7 0.0
26/06:00am 18.5 16.8 11.1 62 4.0 E 11 19 6 10 1018.8 1018.7 0.0
26/05:30am 18.2 17.3 10.8 62 4.0 SSE 6 15 3 8 1018.8 1018.7 0.0
26/05:00am 18.4 18.0 11.0 62 4.0 WSW 4 9 2 5 1018.3 1018.2 0.0
26/04:30am 18.8 17.8 10.9 60 4.3 SE 7 19 4 10 1017.8 1017.7 0.0
26/04:00am 18.9 18.1 11.0 60 4.3 ESE 6 15 3 8 1017.6 1017.5 0.0
26/03:30am 19.4 18.4 10.9 58 4.6 SSE 7 15 4 8 1017.6 1017.5 0.0
26/03:00am 20.0 18.5 10.7 55 5.0 SE 9 22 5 12 1017.4 1017.3 0.0
26/02:30am 20.5 18.6 10.6 53 5.4 SE 11 26 6 14 1017.3 1017.2 0.0
26/02:00am 21.1 18.4 10.3 50 5.9 ESE 15 33 8 18 1017.1 1017.0 0.0
26/01:30am 21.4 19.2 9.3 46 6.5 E 11 26 6 14 1017.1 1017.0 0.0
26/01:00am 21.8 19.4 7.2 39 7.5 ESE 9 20 5 11 1017.3 1017.2 0.0
26/12:30am 22.7 20.0 5.6 33 8.6 SE 9 24 5 13 1017.4 1017.3 0.0
26/12:00am 20.3 19.0 9.2 49 5.9 SSW 6 7 3 4 1017.5 1017.4 0.0
 
Date/Time
WST
Temp
°C
App
Temp
°C
Dew
Point
°C
Rel
Hum
%
Delta-T
°C
Wind Press
QNH
hPa
Press
MSL
hPa
Rain since
9am
mm
Dir  Spd
km/h
Gust
km/h
Spd
kts
Gust
kts
25/11:30pm 18.8 18.8 12.5 67 3.5 S 4 9 2 5 1017.7 1017.6 0.0
25/11:00pm 17.4 18.3 12.9 75 2.5 CALM 0 0 0 0 1017.8 1017.7 0.0
25/10:30pm 17.6 18.4 12.5 72 2.8 CALM 0 0 0 0 1018.1 1018.0 0.0
25/10:00pm 18.9 19.9 13.1 69 3.3 CALM 0 0 0 0 1018.3 1018.2 0.0
25/09:30pm 20.6 21.6 13.1 62 4.3 CALM 0 2 0 1 1018.3 1018.2 0.0
25/09:00pm 21.8 21.8 12.4 55 5.3 S 4 6 2 3 1018.3 1018.2 0.0
25/08:30pm 22.6 22.5 12.0 51 6.0 S 4 6 2 3 1018.1 1018.0 0.0
25/08:00pm 24.0 23.8 11.7 46 6.9 S 4 6 2 3 1018.0 1017.9 0.0
25/07:30pm 25.7 24.2 10.7 39 8.4 S 9 17 5 9 1017.7 1017.6 0.0
25/07:00pm 26.3 25.0 10.0 36 9.0 SSW 7 13 4 7 1017.4 1017.3 0.0
25/06:30pm 28.0 25.4 9.3 31 10.3 SSW 13 20 7 11 1017.2 1017.1 0.0
25/06:00pm 29.3 26.7 9.4 29 11.1 SSW 13 20 7 11 1016.8 1016.7 0.0
25/05:30pm 30.6 27.4 10.0 28 11.7 SSW 17 28 9 15 1016.4 1016.3 0.0
25/05:00pm 31.7 29.1 9.3 25 12.6 SSW 13 26 7 14 1016.3 1016.2 0.0
25/04:30pm 32.2 29.3 4.9 18 14.4 SE 9 13 5 7 1016.4 1016.3 0.0
25/04:00pm 32.5 29.9 4.3 17 14.7 SE 7 15 4 8 1016.4 1016.3 0.0
25/03:30pm 32.3 29.8 5.0 18 14.4 SE 7 15 4 8 1016.6 1016.5 0.0
25/03:00pm 32.1 29.6 4.8 18 14.3 SSE 7 15 4 8 1016.7 1016.6 0.0
25/02:30pm 31.9 29.4 4.6 18 14.3 SE 7 13 4 7 1016.9 1016.8 0.0
25/02:00pm 32.5 30.1 5.1 18 14.5 SSE 7 13 4 7 1017.0 1016.9 0.0
25/01:30pm 31.3 28.8 4.9 19 13.8 NE 7 15 4 8 1017.4 1017.3 0.0
25/01:00pm 30.8 28.4 5.3 20 13.4 E 7 13 4 7 1017.8 1017.7 0.0
25/12:30pm 30.4 28.6 7.0 23 12.6 E 6 17 3 9 1018.2 1018.1 0.0
25/12:00pm 29.7 27.6 8.2 26 11.8 ESE 9 17 5 9 1018.6 1018.5 0.0
25/11:30am 29.2 27.5 8.3 27 11.4 NE 7 17 4 9 1019.0 1018.9 0.0
25/11:00am 28.5 27.1 9.7 31 10.5 ESE 7 17 4 9 1019.4 1019.3 0.0
25/10:30am 26.9 25.2 9.7 34 9.5 E 9 19 5 10 1019.7 1019.6 0.0
25/10:00am 25.9 23.9 8.8 34 9.3 NE 9 19 5 10 1020.0 1019.9 0.0

Other formats

Comma delimited format used in spreadsheet applications
http://www.bom.gov.au/fwo/IDW60801/IDW60801.94795.axf

JavaScript Object Notation format (JSON) in row-major order
http://www.bom.gov.au/fwo/IDW60801/IDW60801.94795.json

Data quality

Most of these data are generated automatically and are frequently updated. Quality checks on data are not normally performed. It is possible for incorrect values to appear. Refer to information at About Latest Weather Observations and please check the disclaimer before using these data.